sensor_id;sensor_type;location;lat;lon;timestamp;temperature;humidity
15044;DHT22;7619;48.562;8.910;2022-11-09T00:02:00;7.50;99.90
15044;DHT22;7619;48.562;8.910;2022-11-09T00:04:31;7.50;99.90
15044;DHT22;7619;48.562;8.910;2022-11-09T00:07:00;7.60;99.90
15044;DHT22;7619;48.562;8.910;2022-11-09T00:09:28;7.60;99.90
15044;DHT22;7619;48.562;8.910;2022-11-09T00:11:57;7.50;99.90
15044;DHT22;7619;48.562;8.910;2022-11-09T00:14:28;7.50;99.90
15044;DHT22;7619;48.562;8.910;2022-11-09T00:16:57;7.40;99.90
15044;DHT22;7619;48.562;8.910;2022-11-09T00:19:26;7.40;99.90
15044;DHT22;7619;48.562;8.910;2022-11-09T00:21:55;7.30;99.90
15044;DHT22;7619;48.562;8.910;2022-11-09T00:24:23;7.30;99.90
15044;DHT22;7619;48.562;8.910;2022-11-09T00:26:52;7.30;99.90
15044;DHT22;7619;48.562;8.910;2022-11-09T00:29:21;7.40;99.90
15044;DHT22;7619;48.562;8.910;2022-11-09T00:31:49;7.40;99.90
15044;DHT22;7619;48.562;8.910;2022-11-09T00:34:19;7.40;99.90
15044;DHT22;7619;48.562;8.910;2022-11-09T00:36:48;7.40;99.90
15044;DHT22;7619;48.562;8.910;2022-11-09T00:39:17;7.40;99.90
15044;DHT22;7619;48.562;8.910;2022-11-09T00:41:46;7.30;99.90
15044;DHT22;7619;48.562;8.910;2022-11-09T00:44:15;7.30;99.90
15044;DHT22;7619;48.562;8.910;2022-11-09T00:46:44;7.30;99.90
15044;DHT22;7619;48.562;8.910;2022-11-09T00:49:13;7.30;99.90
15044;DHT22;7619;48.562;8.910;2022-11-09T00:51:41;7.40;99.90
15044;DHT22;7619;48.562;8.910;2022-11-09T00:54:10;7.40;99.90
15044;DHT22;7619;48.562;8.910;2022-11-09T00:56:40;7.50;99.90
15044;DHT22;7619;48.562;8.910;2022-11-09T00:59:10;7.40;99.90
15044;DHT22;7619;48.562;8.910;2022-11-09T01:01:38;7.40;99.90
15044;DHT22;7619;48.562;8.910;2022-11-09T01:04:07;7.30;99.90
15044;DHT22;7619;48.562;8.910;2022-11-09T01:06:40;7.30;99.90
15044;DHT22;7619;48.562;8.910;2022-11-09T01:09:09;7.30;99.90
15044;DHT22;7619;48.562;8.910;2022-11-09T01:11:39;7.30;99.90
15044;DHT22;7619;48.562;8.910;2022-11-09T01:14:09;7.40;99.90
15044;DHT22;7619;48.562;8.910;2022-11-09T01:16:39;7.40;99.90
15044;DHT22;7619;48.562;8.910;2022-11-09T01:19:07;7.40;99.90
15044;DHT22;7619;48.562;8.910;2022-11-09T01:21:37;7.30;99.90
15044;DHT22;7619;48.562;8.910;2022-11-09T01:24:07;7.30;99.90
15044;DHT22;7619;48.562;8.910;2022-11-09T01:26:36;7.40;99.90
15044;DHT22;7619;48.562;8.910;2022-11-09T01:29:06;7.40;99.90
15044;DHT22;7619;48.562;8.910;2022-11-09T01:31:35;7.40;99.90
15044;DHT22;7619;48.562;8.910;2022-11-09T01:34:04;7.40;99.90
15044;DHT22;7619;48.562;8.910;2022-11-09T01:36:33;7.50;99.90
15044;DHT22;7619;48.562;8.910;2022-11-09T01:39:02;7.50;99.90
15044;DHT22;7619;48.562;8.910;2022-11-09T01:41:30;7.60;99.90
15044;DHT22;7619;48.562;8.910;2022-11-09T01:44:09;7.60;99.90
15044;DHT22;7619;48.562;8.910;2022-11-09T01:46:46;7.70;99.90
15044;DHT22;7619;48.562;8.910;2022-11-09T01:49:23;7.90;99.90
15044;DHT22;7619;48.562;8.910;2022-11-09T01:51:55;7.80;99.90
15044;DHT22;7619;48.562;8.910;2022-11-09T01:54:27;7.80;99.90
15044;DHT22;7619;48.562;8.910;2022-11-09T01:56:59;7.70;99.90
15044;DHT22;7619;48.562;8.910;2022-11-09T01:59:35;7.60;99.90
15044;DHT22;7619;48.562;8.910;2022-11-09T02:02:00;7.60;99.90
15044;DHT22;7619;48.562;8.910;2022-11-09T02:04:32;7.60;99.90
15044;DHT22;7619;48.562;8.910;2022-11-09T02:07:02;7.60;99.90
15044;DHT22;7619;48.562;8.910;2022-11-09T02:09:35;7.70;99.90
15044;DHT22;7619;48.562;8.910;2022-11-09T02:12:06;7.70;99.90
15044;DHT22;7619;48.562;8.910;2022-11-09T02:14:35;7.70;99.90
15044;DHT22;7619;48.562;8.910;2022-11-09T02:17:05;7.80;99.90
15044;DHT22;7619;48.562;8.910;2022-11-09T02:19:35;7.80;99.90
15044;DHT22;7619;48.562;8.910;2022-11-09T02:22:04;7.80;99.90
15044;DHT22;7619;48.562;8.910;2022-11-09T02:24:33;7.90;99.90
15044;DHT22;7619;48.562;8.910;2022-11-09T02:27:01;7.90;99.90
15044;DHT22;7619;48.562;8.910;2022-11-09T02:29:34;7.80;99.90
15044;DHT22;7619;48.562;8.910;2022-11-09T02:32:05;8.00;99.90
15044;DHT22;7619;48.562;8.910;2022-11-09T02:34:35;8.00;99.90
15044;DHT22;7619;48.562;8.910;2022-11-09T02:37:04;8.00;99.90
15044;DHT22;7619;48.562;8.910;2022-11-09T02:39:32;8.00;99.90
15044;DHT22;7619;48.562;8.910;2022-11-09T02:42:04;8.10;99.90
15044;DHT22;7619;48.562;8.910;2022-11-09T02:44:35;8.10;99.90
15044;DHT22;7619;48.562;8.910;2022-11-09T02:47:05;8.00;99.90
15044;DHT22;7619;48.562;8.910;2022-11-09T02:49:33;8.00;99.90
15044;DHT22;7619;48.562;8.910;2022-11-09T02:52:02;8.10;99.90
15044;DHT22;7619;48.562;8.910;2022-11-09T02:54:31;8.10;99.90
15044;DHT22;7619;48.562;8.910;2022-11-09T02:57:00;8.20;99.90
15044;DHT22;7619;48.562;8.910;2022-11-09T02:59:28;8.20;99.90
15044;DHT22;7619;48.562;8.910;2022-11-09T03:01:57;8.20;99.90
15044;DHT22;7619;48.562;8.910;2022-11-09T03:04:26;8.20;99.90
15044;DHT22;7619;48.562;8.910;2022-11-09T03:06:55;8.10;99.90
15044;DHT22;7619;48.562;8.910;2022-11-09T03:09:23;8.10;99.90
15044;DHT22;7619;48.562;8.910;2022-11-09T03:11:52;8.10;99.90
15044;DHT22;7619;48.562;8.910;2022-11-09T03:14:21;8.10;99.90
15044;DHT22;7619;48.562;8.910;2022-11-09T03:16:49;8.20;99.90
15044;DHT22;7619;48.562;8.910;2022-11-09T03:19:18;8.30;99.90
15044;DHT22;7619;48.562;8.910;2022-11-09T03:21:47;8.40;99.90
15044;DHT22;7619;48.562;8.910;2022-11-09T03:24:16;8.30;99.90
15044;DHT22;7619;48.562;8.910;2022-11-09T03:26:44;8.30;99.90
15044;DHT22;7619;48.562;8.910;2022-11-09T03:29:13;8.30;99.90
15044;DHT22;7619;48.562;8.910;2022-11-09T03:31:42;8.30;99.90
15044;DHT22;7619;48.562;8.910;2022-11-09T03:34:10;8.30;99.90
15044;DHT22;7619;48.562;8.910;2022-11-09T03:36:39;8.30;99.90
15044;DHT22;7619;48.562;8.910;2022-11-09T03:39:08;8.10;99.90
15044;DHT22;7619;48.562;8.910;2022-11-09T03:41:37;8.10;99.90
15044;DHT22;7619;48.562;8.910;2022-11-09T03:44:06;8.10;99.90
15044;DHT22;7619;48.562;8.910;2022-11-09T03:46:35;8.00;99.90
15044;DHT22;7619;48.562;8.910;2022-11-09T03:49:03;8.20;99.90
15044;DHT22;7619;48.562;8.910;2022-11-09T03:51:32;8.20;99.90
15044;DHT22;7619;48.562;8.910;2022-11-09T03:54:01;8.20;99.90
15044;DHT22;7619;48.562;8.910;2022-11-09T03:56:30;8.20;99.90
15044;DHT22;7619;48.562;8.910;2022-11-09T03:58:58;8.10;99.90
15044;DHT22;7619;48.562;8.910;2022-11-09T04:01:27;8.20;99.90
15044;DHT22;7619;48.562;8.910;2022-11-09T04:03:56;8.20;99.90
15044;DHT22;7619;48.562;8.910;2022-11-09T04:06:25;8.30;99.90
15044;DHT22;7619;48.562;8.910;2022-11-09T04:08:53;8.40;99.90
15044;DHT22;7619;48.562;8.910;2022-11-09T04:11:22;8.50;99.90
15044;DHT22;7619;48.562;8.910;2022-11-09T04:13:51;8.50;99.90
15044;DHT22;7619;48.562;8.910;2022-11-09T04:16:20;8.60;99.90
15044;DHT22;7619;48.562;8.910;2022-11-09T04:18:48;8.60;99.90
15044;DHT22;7619;48.562;8.910;2022-11-09T04:21:17;8.60;99.90
15044;DHT22;7619;48.562;8.910;2022-11-09T04:23:47;8.70;99.90
15044;DHT22;7619;48.562;8.910;2022-11-09T04:26:16;8.70;99.90
15044;DHT22;7619;48.562;8.910;2022-11-09T04:28:45;8.70;99.90
15044;DHT22;7619;48.562;8.910;2022-11-09T04:31:13;8.70;99.90
15044;DHT22;7619;48.562;8.910;2022-11-09T04:33:42;8.80;99.90
15044;DHT22;7619;48.562;8.910;2022-11-09T04:36:11;8.80;99.90
15044;DHT22;7619;48.562;8.910;2022-11-09T04:38:40;8.80;99.90
15044;DHT22;7619;48.562;8.910;2022-11-09T04:41:09;8.80;99.90
15044;DHT22;7619;48.562;8.910;2022-11-09T04:43:37;8.90;99.90
15044;DHT22;7619;48.562;8.910;2022-11-09T04:46:06;8.90;99.90
15044;DHT22;7619;48.562;8.910;2022-11-09T04:48:35;8.90;99.90
15044;DHT22;7619;48.562;8.910;2022-11-09T04:51:05;8.90;99.90
15044;DHT22;7619;48.562;8.910;2022-11-09T04:53:35;8.90;99.90
15044;DHT22;7619;48.562;8.910;2022-11-09T04:56:04;8.90;99.90
15044;DHT22;7619;48.562;8.910;2022-11-09T04:58:34;8.90;99.90
15044;DHT22;7619;48.562;8.910;2022-11-09T05:01:03;8.90;99.90
15044;DHT22;7619;48.562;8.910;2022-11-09T05:03:33;9.00;99.90
15044;DHT22;7619;48.562;8.910;2022-11-09T05:06:02;9.00;99.90
15044;DHT22;7619;48.562;8.910;2022-11-09T05:08:32;9.00;99.90
15044;DHT22;7619;48.562;8.910;2022-11-09T05:11:01;9.00;99.90
15044;DHT22;7619;48.562;8.910;2022-11-09T05:13:30;9.00;99.90
15044;DHT22;7619;48.562;8.910;2022-11-09T05:16:00;9.10;99.90
15044;DHT22;7619;48.562;8.910;2022-11-09T05:18:29;9.10;99.90
15044;DHT22;7619;48.562;8.910;2022-11-09T05:20:59;9.10;99.90
15044;DHT22;7619;48.562;8.910;2022-11-09T05:23:28;9.10;99.90
15044;DHT22;7619;48.562;8.910;2022-11-09T05:26:15;9.10;99.90
15044;DHT22;7619;48.562;8.910;2022-11-09T05:28:44;9.10;99.90
15044;DHT22;7619;48.562;8.910;2022-11-09T05:31:12;9.10;99.90
15044;DHT22;7619;48.562;8.910;2022-11-09T05:33:41;9.00;99.90
15044;DHT22;7619;48.562;8.910;2022-11-09T05:36:10;9.00;99.90
15044;DHT22;7619;48.562;8.910;2022-11-09T05:38:39;9.10;99.90
15044;DHT22;7619;48.562;8.910;2022-11-09T05:41:08;9.10;99.90
15044;DHT22;7619;48.562;8.910;2022-11-09T05:43:36;9.10;99.90
15044;DHT22;7619;48.562;8.910;2022-11-09T05:46:06;9.00;99.90
15044;DHT22;7619;48.562;8.910;2022-11-09T05:48:34;9.00;99.90
15044;DHT22;7619;48.562;8.910;2022-11-09T05:51:04;9.00;99.90
15044;DHT22;7619;48.562;8.910;2022-11-09T05:53:33;8.90;99.90
15044;DHT22;7619;48.562;8.910;2022-11-09T05:56:03;8.90;99.90
15044;DHT22;7619;48.562;8.910;2022-11-09T05:58:32;8.90;99.90
15044;DHT22;7619;48.562;8.910;2022-11-09T06:03:40;8.80;99.90
15044;DHT22;7619;48.562;8.910;2022-11-09T06:06:12;8.80;99.90
15044;DHT22;7619;48.562;8.910;2022-11-09T06:08:41;8.80;99.90
15044;DHT22;7619;48.562;8.910;2022-11-09T06:13:49;8.90;99.90
15044;DHT22;7619;48.562;8.910;2022-11-09T06:16:17;8.90;99.90
15044;DHT22;7619;48.562;8.910;2022-11-09T06:18:46;8.90;99.90
15044;DHT22;7619;48.562;8.910;2022-11-09T06:21:15;8.90;99.90
15044;DHT22;7619;48.562;8.910;2022-11-09T06:23:44;8.90;99.90
15044;DHT22;7619;48.562;8.910;2022-11-09T06:26:14;8.90;99.90
15044;DHT22;7619;48.562;8.910;2022-11-09T06:28:43;9.00;99.90
15044;DHT22;7619;48.562;8.910;2022-11-09T06:31:13;9.00;99.90
15044;DHT22;7619;48.562;8.910;2022-11-09T06:33:43;9.00;99.90
15044;DHT22;7619;48.562;8.910;2022-11-09T06:36:12;9.00;99.90
15044;DHT22;7619;48.562;8.910;2022-11-09T06:38:42;9.10;99.90
15044;DHT22;7619;48.562;8.910;2022-11-09T06:41:15;9.10;99.90
15044;DHT22;7619;48.562;8.910;2022-11-09T06:43:44;9.00;99.90
15044;DHT22;7619;48.562;8.910;2022-11-09T06:46:15;9.00;99.90
15044;DHT22;7619;48.562;8.910;2022-11-09T06:48:44;9.00;99.90
15044;DHT22;7619;48.562;8.910;2022-11-09T06:51:14;9.00;99.90
15044;DHT22;7619;48.562;8.910;2022-11-09T06:53:42;9.00;99.90
15044;DHT22;7619;48.562;8.910;2022-11-09T06:56:11;9.00;99.90
15044;DHT22;7619;48.562;8.910;2022-11-09T06:58:41;9.00;99.90
15044;DHT22;7619;48.562;8.910;2022-11-09T07:01:11;9.00;99.90
15044;DHT22;7619;48.562;8.910;2022-11-09T07:03:41;9.10;99.90
15044;DHT22;7619;48.562;8.910;2022-11-09T07:06:11;9.10;99.90
15044;DHT22;7619;48.562;8.910;2022-11-09T07:08:41;9.20;99.90
15044;DHT22;7619;48.562;8.910;2022-11-09T07:11:12;9.20;99.90
15044;DHT22;7619;48.562;8.910;2022-11-09T07:13:46;9.30;99.90
15044;DHT22;7619;48.562;8.910;2022-11-09T07:16:16;9.30;99.90
15044;DHT22;7619;48.562;8.910;2022-11-09T07:18:45;9.30;99.90
15044;DHT22;7619;48.562;8.910;2022-11-09T07:21:14;9.30;99.90
15044;DHT22;7619;48.562;8.910;2022-11-09T07:23:43;9.30;99.90
15044;DHT22;7619;48.562;8.910;2022-11-09T07:26:14;9.40;99.90
15044;DHT22;7619;48.562;8.910;2022-11-09T07:28:43;9.60;99.90
15044;DHT22;7619;48.562;8.910;2022-11-09T07:31:12;9.60;99.90
15044;DHT22;7619;48.562;8.910;2022-11-09T07:33:41;9.70;99.90
15044;DHT22;7619;48.562;8.910;2022-11-09T07:36:09;9.70;99.90
15044;DHT22;7619;48.562;8.910;2022-11-09T07:38:38;9.70;99.90
15044;DHT22;7619;48.562;8.910;2022-11-09T07:41:07;9.80;99.90
15044;DHT22;7619;48.562;8.910;2022-11-09T07:43:36;9.80;99.90
15044;DHT22;7619;48.562;8.910;2022-11-09T07:46:05;9.90;99.90
15044;DHT22;7619;48.562;8.910;2022-11-09T07:48:34;10.00;99.90
15044;DHT22;7619;48.562;8.910;2022-11-09T07:51:03;10.10;99.90
15044;DHT22;7619;48.562;8.910;2022-11-09T07:56:11;10.20;99.90
15044;DHT22;7619;48.562;8.910;2022-11-09T07:58:40;10.30;99.90
15044;DHT22;7619;48.562;8.910;2022-11-09T08:01:09;10.30;99.90
15044;DHT22;7619;48.562;8.910;2022-11-09T08:03:38;10.40;99.90
15044;DHT22;7619;48.562;8.910;2022-11-09T08:06:07;10.40;99.90
15044;DHT22;7619;48.562;8.910;2022-11-09T08:08:36;10.50;99.90
15044;DHT22;7619;48.562;8.910;2022-11-09T08:11:05;10.40;99.90
15044;DHT22;7619;48.562;8.910;2022-11-09T08:16:11;10.60;99.90
15044;DHT22;7619;48.562;8.910;2022-11-09T08:18:40;10.60;99.90
15044;DHT22;7619;48.562;8.910;2022-11-09T08:21:09;10.60;99.90
15044;DHT22;7619;48.562;8.910;2022-11-09T08:23:38;10.80;99.90
15044;DHT22;7619;48.562;8.910;2022-11-09T08:26:07;11.00;99.90
15044;DHT22;7619;48.562;8.910;2022-11-09T08:28:36;11.20;99.90
15044;DHT22;7619;48.562;8.910;2022-11-09T08:31:07;11.50;99.90
15044;DHT22;7619;48.562;8.910;2022-11-09T08:33:37;11.40;99.90
15044;DHT22;7619;48.562;8.910;2022-11-09T08:36:11;11.20;99.90
15044;DHT22;7619;48.562;8.910;2022-11-09T08:38:42;11.10;99.90
15044;DHT22;7619;48.562;8.910;2022-11-09T08:41:11;11.20;99.90
15044;DHT22;7619;48.562;8.910;2022-11-09T08:43:40;11.20;99.90
15044;DHT22;7619;48.562;8.910;2022-11-09T08:46:09;11.20;99.90
15044;DHT22;7619;48.562;8.910;2022-11-09T08:51:16;11.30;99.90
15044;DHT22;7619;48.562;8.910;2022-11-09T08:53:45;11.30;99.90
15044;DHT22;7619;48.562;8.910;2022-11-09T08:56:13;11.40;99.90
15044;DHT22;7619;48.562;8.910;2022-11-09T09:01:21;11.80;99.90
15044;DHT22;7619;48.562;8.910;2022-11-09T09:03:51;11.90;99.90
15044;DHT22;7619;48.562;8.910;2022-11-09T09:06:21;12.00;99.90
15044;DHT22;7619;48.562;8.910;2022-11-09T09:08:50;12.20;99.90
15044;DHT22;7619;48.562;8.910;2022-11-09T09:11:18;12.40;99.90
15044;DHT22;7619;48.562;8.910;2022-11-09T09:13:47;12.50;99.90
15044;DHT22;7619;48.562;8.910;2022-11-09T09:16:16;12.70;99.90
15044;DHT22;7619;48.562;8.910;2022-11-09T09:18:47;12.80;99.90
15044;DHT22;7619;48.562;8.910;2022-11-09T09:21:16;13.00;99.90
15044;DHT22;7619;48.562;8.910;2022-11-09T09:23:46;13.00;99.90
15044;DHT22;7619;48.562;8.910;2022-11-09T09:26:16;13.00;99.90
15044;DHT22;7619;48.562;8.910;2022-11-09T09:28:46;13.10;99.90
15044;DHT22;7619;48.562;8.910;2022-11-09T09:31:14;13.20;99.90
15044;DHT22;7619;48.562;8.910;2022-11-09T09:33:44;13.30;99.90
15044;DHT22;7619;48.562;8.910;2022-11-09T09:36:16;13.40;99.90
15044;DHT22;7619;48.562;8.910;2022-11-09T09:38:47;13.50;99.90
15044;DHT22;7619;48.562;8.910;2022-11-09T09:41:20;13.70;99.90
15044;DHT22;7619;48.562;8.910;2022-11-09T09:43:52;13.80;99.90
15044;DHT22;7619;48.562;8.910;2022-11-09T09:46:25;14.00;99.90
15044;DHT22;7619;48.562;8.910;2022-11-09T09:48:58;14.20;99.90
15044;DHT22;7619;48.562;8.910;2022-11-09T09:51:31;14.30;99.90
15044;DHT22;7619;48.562;8.910;2022-11-09T09:54:02;14.40;99.90
15044;DHT22;7619;48.562;8.910;2022-11-09T09:56:35;14.50;99.90
15044;DHT22;7619;48.562;8.910;2022-11-09T09:59:11;14.50;99.90
15044;DHT22;7619;48.562;8.910;2022-11-09T10:01:38;14.40;99.90
15044;DHT22;7619;48.562;8.910;2022-11-09T10:07:02;14.40;99.90
15044;DHT22;7619;48.562;8.910;2022-11-09T10:09:40;14.50;99.90
15044;DHT22;7619;48.562;8.910;2022-11-09T10:12:14;14.40;99.90
15044;DHT22;7619;48.562;8.910;2022-11-09T10:14:51;14.50;99.90
15044;DHT22;7619;48.562;8.910;2022-11-09T10:20:09;14.70;99.90
15044;DHT22;7619;48.562;8.910;2022-11-09T10:25:22;14.60;99.90
15044;DHT22;7619;48.562;8.910;2022-11-09T10:27:53;14.90;99.90
15044;DHT22;7619;48.562;8.910;2022-11-09T10:30:24;15.10;99.90
15044;DHT22;7619;48.562;8.910;2022-11-09T10:32:56;15.10;99.90
15044;DHT22;7619;48.562;8.910;2022-11-09T10:35:28;15.00;99.90
15044;DHT22;7619;48.562;8.910;2022-11-09T10:37:57;14.80;99.90
15044;DHT22;7619;48.562;8.910;2022-11-09T10:43:08;14.70;99.90
15044;DHT22;7619;48.562;8.910;2022-11-09T10:45:39;14.70;99.90
15044;DHT22;7619;48.562;8.910;2022-11-09T10:48:10;14.70;99.90
15044;DHT22;7619;48.562;8.910;2022-11-09T10:50:45;14.50;99.90
15044;DHT22;7619;48.562;8.910;2022-11-09T10:53:15;14.50;99.90
15044;DHT22;7619;48.562;8.910;2022-11-09T10:55:52;14.50;99.90
15044;DHT22;7619;48.562;8.910;2022-11-09T10:58:29;14.50;99.90
15044;DHT22;7619;48.562;8.910;2022-11-09T11:01:01;14.40;99.90
15044;DHT22;7619;48.562;8.910;2022-11-09T11:03:32;14.50;99.90
15044;DHT22;7619;48.562;8.910;2022-11-09T11:08:43;14.20;99.90
15044;DHT22;7619;48.562;8.910;2022-11-09T11:11:25;14.20;99.90
15044;DHT22;7619;48.562;8.910;2022-11-09T11:14:13;14.30;99.90
15044;DHT22;7619;48.562;8.910;2022-11-09T11:16:43;14.30;99.90
15044;DHT22;7619;48.562;8.910;2022-11-09T11:19:34;14.30;99.90
15044;DHT22;7619;48.562;8.910;2022-11-09T11:22:19;14.40;99.90
15044;DHT22;7619;48.562;8.910;2022-11-09T11:24:54;14.40;99.90
15044;DHT22;7619;48.562;8.910;2022-11-09T11:30:11;14.50;99.90
15044;DHT22;7619;48.562;8.910;2022-11-09T11:32:41;14.60;99.90
15044;DHT22;7619;48.562;8.910;2022-11-09T11:37:56;14.90;99.90
15044;DHT22;7619;48.562;8.910;2022-11-09T11:40:29;15.10;99.90
15044;DHT22;7619;48.562;8.910;2022-11-09T11:43:08;15.10;99.90
15044;DHT22;7619;48.562;8.910;2022-11-09T11:45:39;15.20;99.90
15044;DHT22;7619;48.562;8.910;2022-11-09T11:48:38;15.30;99.90
15044;DHT22;7619;48.562;8.910;2022-11-09T11:51:10;15.30;99.90
15044;DHT22;7619;48.562;8.910;2022-11-09T11:53:57;15.50;99.90
15044;DHT22;7619;48.562;8.910;2022-11-09T11:56:31;15.70;99.90
15044;DHT22;7619;48.562;8.910;2022-11-09T12:02:10;16.00;99.90
15044;DHT22;7619;48.562;8.910;2022-11-09T12:07:32;16.10;99.90
15044;DHT22;7619;48.562;8.910;2022-11-09T12:10:20;16.10;99.90
15044;DHT22;7619;48.562;8.910;2022-11-09T12:12:55;16.20;99.90
15044;DHT22;7619;48.562;8.910;2022-11-09T12:15:29;16.10;99.90
15044;DHT22;7619;48.562;8.910;2022-11-09T12:18:08;16.00;99.90
15044;DHT22;7619;48.562;8.910;2022-11-09T12:20:39;15.90;99.90
15044;DHT22;7619;48.562;8.910;2022-11-09T12:23:26;15.80;99.90
15044;DHT22;7619;48.562;8.910;2022-11-09T12:26:02;15.80;99.90
15044;DHT22;7619;48.562;8.910;2022-11-09T12:28:43;15.60;99.90
15044;DHT22;7619;48.562;8.910;2022-11-09T12:31:17;15.50;99.90
15044;DHT22;7619;48.562;8.910;2022-11-09T12:33:49;15.70;99.90
15044;DHT22;7619;48.562;8.910;2022-11-09T12:36:22;15.80;99.90
15044;DHT22;7619;48.562;8.910;2022-11-09T12:38:59;15.80;99.90
15044;DHT22;7619;48.562;8.910;2022-11-09T12:41:32;15.90;99.90
15044;DHT22;7619;48.562;8.910;2022-11-09T12:44:05;15.90;99.90
15044;DHT22;7619;48.562;8.910;2022-11-09T12:46:37;15.90;99.90
15044;DHT22;7619;48.562;8.910;2022-11-09T12:49:25;15.80;99.90
15044;DHT22;7619;48.562;8.910;2022-11-09T12:54:23;15.60;99.90
15044;DHT22;7619;48.562;8.910;2022-11-09T12:56:55;15.50;99.90
15044;DHT22;7619;48.562;8.910;2022-11-09T12:59:43;15.40;99.90
15044;DHT22;7619;48.562;8.910;2022-11-09T13:02:21;15.40;99.90
15044;DHT22;7619;48.562;8.910;2022-11-09T13:04:56;15.40;99.90
15044;DHT22;7619;48.562;8.910;2022-11-09T13:07:52;15.40;99.90
15044;DHT22;7619;48.562;8.910;2022-11-09T13:13:22;15.40;99.90
15044;DHT22;7619;48.562;8.910;2022-11-09T13:16:11;15.30;99.90
15044;DHT22;7619;48.562;8.910;2022-11-09T13:18:50;15.30;99.90
15044;DHT22;7619;48.562;8.910;2022-11-09T13:21:39;15.20;99.90
15044;DHT22;7619;48.562;8.910;2022-11-09T13:27:41;15.00;99.90
15044;DHT22;7619;48.562;8.910;2022-11-09T13:33:26;14.90;99.90
15044;DHT22;7619;48.562;8.910;2022-11-09T13:39:31;15.30;99.90
15044;DHT22;7619;48.562;8.910;2022-11-09T13:42:00;15.50;99.90
15044;DHT22;7619;48.562;8.910;2022-11-09T13:47:21;15.60;99.90
15044;DHT22;7619;48.562;8.910;2022-11-09T13:49:50;15.40;99.90
15044;DHT22;7619;48.562;8.910;2022-11-09T13:52:46;15.10;99.90
15044;DHT22;7619;48.562;8.910;2022-11-09T13:55:25;15.00;99.90
15044;DHT22;7619;48.562;8.910;2022-11-09T13:57:57;14.80;99.90
15044;DHT22;7619;48.562;8.910;2022-11-09T14:00:27;14.70;99.90
15044;DHT22;7619;48.562;8.910;2022-11-09T14:02:59;14.70;99.90
15044;DHT22;7619;48.562;8.910;2022-11-09T14:05:33;14.70;99.90
15044;DHT22;7619;48.562;8.910;2022-11-09T14:08:04;14.20;99.90
15044;DHT22;7619;48.562;8.910;2022-11-09T14:16:44;14.50;99.90
15044;DHT22;7619;48.562;8.910;2022-11-09T14:19:19;14.40;99.90
15044;DHT22;7619;48.562;8.910;2022-11-09T14:24:32;14.40;99.90
15044;DHT22;7619;48.562;8.910;2022-11-09T14:27:11;14.30;99.90
15044;DHT22;7619;48.562;8.910;2022-11-09T14:29:51;14.30;99.90
15044;DHT22;7619;48.562;8.910;2022-11-09T14:32:25;14.20;99.90
15044;DHT22;7619;48.562;8.910;2022-11-09T14:40:37;14.10;99.90
15044;DHT22;7619;48.562;8.910;2022-11-09T14:43:18;14.10;99.90
15044;DHT22;7619;48.562;8.910;2022-11-09T14:45:52;14.00;99.90
15044;DHT22;7619;48.562;8.910;2022-11-09T14:48:22;14.00;99.90
15044;DHT22;7619;48.562;8.910;2022-11-09T14:50:53;13.90;99.90
15044;DHT22;7619;48.562;8.910;2022-11-09T14:53:25;13.90;99.90
15044;DHT22;7619;48.562;8.910;2022-11-09T15:11:36;13.60;99.90
15044;DHT22;7619;48.562;8.910;2022-11-09T15:14:14;13.50;99.90
15044;DHT22;7619;48.562;8.910;2022-11-09T15:16:44;13.50;99.90
15044;DHT22;7619;48.562;8.910;2022-11-09T15:19:27;13.40;99.90
15044;DHT22;7619;48.562;8.910;2022-11-09T15:24:46;13.30;99.90
15044;DHT22;7619;48.562;8.910;2022-11-09T15:27:30;13.30;99.90
15044;DHT22;7619;48.562;8.910;2022-11-09T15:30:00;13.20;99.90
15044;DHT22;7619;48.562;8.910;2022-11-09T15:32:36;13.20;99.90
15044;DHT22;7619;48.562;8.910;2022-11-09T15:35:16;13.10;99.90
15044;DHT22;7619;48.562;8.910;2022-11-09T15:37:51;13.10;99.90
15044;DHT22;7619;48.562;8.910;2022-11-09T15:40:23;13.10;99.90
15044;DHT22;7619;48.562;8.910;2022-11-09T15:42:52;13.10;99.90
15044;DHT22;7619;48.562;8.910;2022-11-09T15:45:21;13.00;99.90
15044;DHT22;7619;48.562;8.910;2022-11-09T15:47:52;13.00;99.90
15044;DHT22;7619;48.562;8.910;2022-11-09T15:50:24;13.00;99.90
15044;DHT22;7619;48.562;8.910;2022-11-09T15:52:53;12.90;99.90
15044;DHT22;7619;48.562;8.910;2022-11-09T15:55:22;12.90;99.90
15044;DHT22;7619;48.562;8.910;2022-11-09T15:57:51;12.90;99.90
15044;DHT22;7619;48.562;8.910;2022-11-09T16:00:21;12.90;99.90
15044;DHT22;7619;48.562;8.910;2022-11-09T16:02:50;12.70;99.90
15044;DHT22;7619;48.562;8.910;2022-11-09T16:05:19;12.70;99.90
15044;DHT22;7619;48.562;8.910;2022-11-09T16:07:51;12.60;99.90
15044;DHT22;7619;48.562;8.910;2022-11-09T16:10:21;12.60;99.90
15044;DHT22;7619;48.562;8.910;2022-11-09T16:12:50;12.70;99.90
15044;DHT22;7619;48.562;8.910;2022-11-09T16:15:22;12.60;99.90
15044;DHT22;7619;48.562;8.910;2022-11-09T16:17:52;12.60;99.90
15044;DHT22;7619;48.562;8.910;2022-11-09T16:20:21;12.60;99.90
15044;DHT22;7619;48.562;8.910;2022-11-09T16:22:50;12.60;99.90
15044;DHT22;7619;48.562;8.910;2022-11-09T16:25:19;12.50;99.90
15044;DHT22;7619;48.562;8.910;2022-11-09T16:27:48;12.50;99.90
15044;DHT22;7619;48.562;8.910;2022-11-09T16:30:17;12.40;99.90
15044;DHT22;7619;48.562;8.910;2022-11-09T16:32:47;12.50;99.90
15044;DHT22;7619;48.562;8.910;2022-11-09T16:35:16;12.50;99.90
15044;DHT22;7619;48.562;8.910;2022-11-09T16:37:45;12.50;99.90
15044;DHT22;7619;48.562;8.910;2022-11-09T16:40:28;12.50;99.90
15044;DHT22;7619;48.562;8.910;2022-11-09T16:43:03;12.40;99.90
15044;DHT22;7619;48.562;8.910;2022-11-09T16:45:32;12.40;99.90
15044;DHT22;7619;48.562;8.910;2022-11-09T16:48:03;12.30;99.90
15044;DHT22;7619;48.562;8.910;2022-11-09T16:50:33;12.30;99.90
15044;DHT22;7619;48.562;8.910;2022-11-09T16:55:41;12.20;99.90
15044;DHT22;7619;48.562;8.910;2022-11-09T16:58:10;12.20;99.90
15044;DHT22;7619;48.562;8.910;2022-11-09T17:00:44;12.20;99.90
15044;DHT22;7619;48.562;8.910;2022-11-09T17:03:13;12.10;99.90
15044;DHT22;7619;48.562;8.910;2022-11-09T17:05:43;12.20;99.90
15044;DHT22;7619;48.562;8.910;2022-11-09T17:08:12;12.10;99.90
15044;DHT22;7619;48.562;8.910;2022-11-09T17:10:42;12.10;99.90
15044;DHT22;7619;48.562;8.910;2022-11-09T17:13:13;12.10;99.90
15044;DHT22;7619;48.562;8.910;2022-11-09T17:18:21;12.10;99.90
15044;DHT22;7619;48.562;8.910;2022-11-09T17:20:50;12.00;99.90
15044;DHT22;7619;48.562;8.910;2022-11-09T17:26:00;12.00;99.90
15044;DHT22;7619;48.562;8.910;2022-11-09T17:28:30;12.00;99.90
15044;DHT22;7619;48.562;8.910;2022-11-09T17:33:37;11.90;99.90
15044;DHT22;7619;48.562;8.910;2022-11-09T17:36:09;11.90;99.90
15044;DHT22;7619;48.562;8.910;2022-11-09T17:38:38;11.90;99.90
15044;DHT22;7619;48.562;8.910;2022-11-09T17:41:09;11.90;99.90
15044;DHT22;7619;48.562;8.910;2022-11-09T17:43:40;11.90;99.90
15044;DHT22;7619;48.562;8.910;2022-11-09T17:46:11;11.80;99.90
15044;DHT22;7619;48.562;8.910;2022-11-09T17:48:42;11.80;99.90
15044;DHT22;7619;48.562;8.910;2022-11-09T17:51:12;11.80;99.90
15044;DHT22;7619;48.562;8.910;2022-11-09T17:56:20;11.80;99.90
15044;DHT22;7619;48.562;8.910;2022-11-09T18:01:27;11.70;99.90
15044;DHT22;7619;48.562;8.910;2022-11-09T18:03:57;11.70;99.90
15044;DHT22;7619;48.562;8.910;2022-11-09T18:06:26;11.70;99.90